Time;durP1;ratioP1;P1;durP2;ratioP2;P2;SDS_P1;SDS_P2;PMS_P1;PMS_P2;Temp;Humidity;BMP_temperature;BMP_pressure;BME280_temperature;BME280_humidity;BME280_pressure;Samples;Min_cycle;Max_cycle;Signal;HPM_P1;HPM_P2
2021/07/27 00:00:10;;;;;;;;;;;;;;;28.13;41.71;97292.34;5026563;28;1547;-53
2021/07/27 00:02:35;;;;;;;;;;;;;;;28.03;42.23;97279.94;5030354;28;1176;-54
2021/07/27 00:05:00;;;;;;;;;;;;;;;28.05;41.71;97279.81;5030302;28;1483;-53
2021/07/27 00:07:25;;;;;;;;;;;;;;;28.16;41.83;97278.81;5029190;28;1966;-54
2021/07/27 00:09:51;;;;;;;;;;;;;;;28.30;41.36;97279.22;5030161;28;1717;-53
2021/07/27 00:12:16;;;;;;;;;;;;;;;28.17;41.65;97291.06;5027166;28;1910;-52
2021/07/27 00:14:41;;;;;;;;;;;;;;;28.09;41.86;97291.78;5028775;28;1038;-53
2021/07/27 00:17:06;;;;;;;;;;;;;;;28.09;41.79;97284.66;5029735;28;1272;-53
2021/07/27 00:19:31;;;;;;;;;;;;;;;28.10;41.59;97281.03;5029703;28;1582;-51
2021/07/27 00:21:57;;;;;;;;;;;;;;;28.12;42.02;97270.28;5028266;28;1551;-52
2021/07/27 00:24:26;;;;;;;;;;;;;;;28.01;42.05;97271.28;5025815;28;1572;-51
2021/07/27 00:26:51;;;;;;;;;;;;;;;28.12;41.76;97283.53;5027673;28;1567;-53
2021/07/27 00:29:16;;;;;;;;;;;;;;;28.05;41.92;97287.75;5028518;28;1983;-53
2021/07/27 00:31:41;;;;;;;;;;;;;;;28.04;41.82;97284.28;5024857;28;1571;-53
2021/07/27 00:34:07;;;;;;;;;;;;;;;28.05;41.94;97288.59;5025003;28;1566;-53
2021/07/27 00:36:32;;;;;;;;;;;;;;;28.12;41.65;97293.31;5024565;28;1391;-54
2021/07/27 00:38:57;;;;;;;;;;;;;;;28.08;41.89;97298.91;5027689;28;1445;-51
2021/07/27 00:41:22;;;;;;;;;;;;;;;28.23;41.45;97298.47;5026026;28;1623;-54
2021/07/27 00:43:47;;;;;;;;;;;;;;;28.07;41.90;97299.06;5030260;28;1136;-51
2021/07/27 00:46:13;;;;;;;;;;;;;;;28.07;42.10;97299.88;5024922;28;1590;-53
2021/07/27 00:48:38;;;;;;;;;;;;;;;28.06;42.04;97303.53;5029386;28;1969;-53
2021/07/27 00:51:03;;;;;;;;;;;;;;;27.98;42.02;97300.75;5026173;28;1635;-54
2021/07/27 00:53:28;;;;;;;;;;;;;;;28.04;41.99;97297.53;5028300;28;1078;-53
2021/07/27 00:55:54;;;;;;;;;;;;;;;27.99;42.22;97297.13;5026796;28;1464;-52
2021/07/27 00:58:19;;;;;;;;;;;;;;;28.01;42.03;97295.16;5027225;28;1341;-53
2021/07/27 01:00:44;;;;;;;;;;;;;;;28.07;41.80;97294.59;5022030;28;1140;-52
2021/07/27 01:03:09;;;;;;;;;;;;;;;28.21;41.63;97306.56;5019434;28;1622;-53
2021/07/27 01:05:34;;;;;;;;;;;;;;;28.00;41.92;97296.13;5028253;28;1287;-54
2021/07/27 01:08:00;;;;;;;;;;;;;;;28.14;41.52;97304.63;5030939;28;1969;-52
2021/07/27 01:10:25;;;;;;;;;;;;;;;28.18;41.48;97306.00;5020703;28;1691;-54
2021/07/27 01:12:50;;;;;;;;;;;;;;;28.22;41.36;97300.28;5023444;28;1511;-52
2021/07/27 01:15:15;;;;;;;;;;;;;;;28.10;41.67;97312.00;5026853;28;1371;-51
2021/07/27 01:17:41;;;;;;;;;;;;;;;28.16;41.68;97300.00;5026466;28;1579;-54
2021/07/27 01:42:04;;;;;;;;;;;;;;;27.96;42.16;97278.00;5045859;28;1430;-88
2021/07/27 01:44:30;;;;;;;;;;;;;;;28.10;41.98;97283.69;5030867;28;1321;-88
2021/07/27 01:46:55;;;;;;;;;;;;;;;28.05;41.80;97282.47;5050315;28;1140;-88
2021/07/27 01:49:20;;;;;;;;;;;;;;;27.98;41.92;97278.72;5043110;28;1986;-88
2021/07/27 01:51:46;;;;;;;;;;;;;;;28.10;42.05;97272.25;5035941;28;1621;-87
2021/07/27 01:54:13;;;;;;;;;;;;;;;28.03;41.79;97271.97;5046234;28;1231;-88
2021/07/27 01:56:39;;;;;;;;;;;;;;;28.06;41.94;97270.88;5040304;28;1564;-88
2021/07/27 01:59:04;;;;;;;;;;;;;;;28.09;41.85;97274.06;5024850;28;1228;-88
2021/07/27 02:01:29;;;;;;;;;;;;;;;28.01;42.02;97276.59;5049410;28;1849;-88
2021/07/27 02:03:55;;;;;;;;;;;;;;;28.17;41.52;97273.34;5051861;28;2002;-88
2021/07/27 02:06:20;;;;;;;;;;;;;;;28.09;41.77;97275.88;5046882;28;1247;-88
2021/07/27 02:08:46;;;;;;;;;;;;;;;28.01;41.70;97268.66;5044622;28;1910;-88
2021/07/27 02:11:13;;;;;;;;;;;;;;;28.08;41.93;97277.69;5035102;28;1668;-88
2021/07/27 02:13:49;;;;;;;;;;;;;;;28.17;41.53;97272.50;5050019;28;1013;-88
2021/07/27 02:16:14;;;;;;;;;;;;;;;28.02;42.14;97275.63;5034456;28;1523;-87
2021/07/27 02:18:40;;;;;;;;;;;;;;;27.98;41.84;97279.53;5041187;28;1360;-88
2021/07/27 02:21:05;;;;;;;;;;;;;;;28.16;41.56;97274.31;5031775;28;1212;-87
2021/07/27 02:23:30;;;;;;;;;;;;;;;28.26;41.35;97276.94;5042784;28;1267;-88
2021/07/27 02:25:55;;;;;;;;;;;;;;;28.12;41.65;97264.97;5033921;28;1652;-88
2021/07/27 02:28:20;;;;;;;;;;;;;;;28.16;41.60;97268.19;5047141;28;1969;-87
2021/07/27 02:30:53;;;;;;;;;;;;;;;28.03;41.74;97266.69;5029446;28;1347;-87
2021/07/27 02:33:19;;;;;;;;;;;;;;;28.12;41.51;97264.97;5040299;28;1351;-88
2021/07/27 02:35:44;;;;;;;;;;;;;;;28.21;41.26;97265.97;5048896;28;1246;-87
2021/07/27 02:38:10;;;;;;;;;;;;;;;28.18;41.61;97260.94;5040734;28;1617;-87
2021/07/27 02:40:36;;;;;;;;;;;;;;;27.94;42.28;97272.84;5048154;28;1335;-87
2021/07/27 02:43:02;;;;;;;;;;;;;;;28.04;41.74;97271.03;5055761;28;1584;-88
2021/07/27 02:45:27;;;;;;;;;;;;;;;28.03;41.93;97274.63;5037743;28;1291;-87
2021/07/27 02:47:53;;;;;;;;;;;;;;;28.05;41.81;97275.34;5063073;28;1978;-88
2021/07/27 02:50:18;;;;;;;;;;;;;;;28.18;41.63;97266.22;5038561;28;1183;-87
2021/07/27 02:52:43;;;;;;;;;;;;;;;28.10;41.57;97269.59;5044883;28;1797;-88
2021/07/27 02:55:09;;;;;;;;;;;;;;;27.91;41.87;97270.50;5044450;28;1864;-88
2021/07/27 02:57:34;;;;;;;;;;;;;;;28.01;41.69;97278.41;5037300;28;1283;-87
2021/07/27 03:00:00;;;;;;;;;;;;;;;28.04;41.98;97276.31;5068822;28;1590;-87
2021/07/27 03:02:25;;;;;;;;;;;;;;;28.23;41.26;97269.28;5040925;28;1288;-87
2021/07/27 03:04:50;;;;;;;;;;;;;;;28.13;41.65;97273.78;5045675;28;1488;-86
2021/07/27 03:07:19;;;;;;;;;;;;;;;28.04;41.80;97276.31;5043452;28;1592;-87
2021/07/27 03:10:17;;;;;;;;;;;;;;;28.03;41.86;97277.28;5040772;28;1898;-88
2021/07/27 03:12:30;;;;;;;;;;;;;;;28.01;41.88;97278.41;5044379;28;1385;-87
2021/07/27 03:14:58;;;;;;;;;;;;;;;27.91;41.92;97274.94;5028575;28;1232;-87
2021/07/27 03:17:26;;;;;;;;;;;;;;;27.97;42.20;97264.63;5054968;28;1276;-87
2021/07/27 03:19:52;;;;;;;;;;;;;;;27.99;41.84;97270.59;5051550;28;1279;-87
2021/07/27 03:22:17;;;;;;;;;;;;;;;27.96;42.01;97265.56;5033446;28;1561;-87
2021/07/27 03:24:43;;;;;;;;;;;;;;;28.07;41.68;97260.13;5045445;28;1053;-88
2021/07/27 03:27:08;;;;;;;;;;;;;;;28.16;41.38;97263.72;5054664;28;1812;-87
2021/07/27 03:29:33;;;;;;;;;;;;;;;28.09;41.67;97263.47;5053483;28;1898;-87
2021/07/27 03:31:59;;;;;;;;;;;;;;;27.92;42.16;97266.84;5034963;28;1288;-87
2021/07/27 03:34:24;;;;;;;;;;;;;;;27.94;42.00;97274.66;5030307;28;1279;-87
2021/07/27 03:36:49;;;;;;;;;;;;;;;28.07;41.86;97272.53;5037858;28;1264;-88
2021/07/27 03:39:15;;;;;;;;;;;;;;;28.19;41.51;97271.38;5034454;28;1196;-87
2021/07/27 03:41:41;;;;;;;;;;;;;;;28.02;41.73;97282.72;5066307;28;1283;-87
2021/07/27 03:44:06;;;;;;;;;;;;;;;27.95;41.86;97271.84;5049439;28;1581;-88
2021/07/27 03:46:31;;;;;;;;;;;;;;;28.03;41.65;97274.63;5054442;28;1295;-88
2021/07/27 03:48:57;;;;;;;;;;;;;;;28.04;41.75;97275.47;5045204;28;1898;-88
2021/07/27 03:51:22;;;;;;;;;;;;;;;28.03;41.79;97274.63;5044115;28;1386;-87
2021/07/27 03:53:47;;;;;;;;;;;;;;;27.97;41.77;97275.22;5039584;28;1101;-87
2021/07/27 03:56:12;;;;;;;;;;;;;;;28.08;41.76;97283.00;5053664;28;1536;-87
2021/07/27 03:58:38;;;;;;;;;;;;;;;27.99;41.88;97275.91;5034005;28;1180;-88
2021/07/27 04:01:06;;;;;;;;;;;;;;;27.98;41.96;97279.53;5038060;28;1319;-88
2021/07/27 04:03:31;;;;;;;;;;;;;;;27.96;41.75;97284.13;5030742;28;2154;-87
2021/07/27 04:05:56;;;;;;;;;;;;;;;28.12;41.56;97288.00;5028126;28;1191;-88
2021/07/27 04:08:21;;;;;;;;;;;;;;;28.05;41.51;97285.94;5049142;28;1957;-87
2021/07/27 04:10:47;;;;;;;;;;;;;;;28.05;41.64;97285.94;5054183;28;1374;-87
2021/07/27 04:13:12;;;;;;;;;;;;;;;28.02;41.57;97285.38;5054408;28;1157;-87
2021/07/27 04:15:37;;;;;;;;;;;;;;;28.04;41.87;97281.63;5052489;28;1501;-88
2021/07/27 04:18:02;;;;;;;;;;;;;;;28.01;41.97;97278.41;5052098;28;1308;-87
2021/07/27 04:20:27;;;;;;;;;;;;;;;28.13;41.72;97290.53;5047147;28;1351;-87
2021/07/27 04:22:53;;;;;;;;;;;;;;;28.02;41.80;97288.88;5042666;28;1677;-87
2021/07/27 04:25:18;;;;;;;;;;;;;;;28.07;41.73;97294.59;5039071;28;1616;-87
2021/07/27 04:27:43;;;;;;;;;;;;;;;28.01;41.67;97289.84;5031508;28;1894;-87
2021/07/27 04:30:08;;;;;;;;;;;;;;;27.99;41.81;97297.13;5046567;28;1675;-87
2021/07/27 04:32:33;;;;;;;;;;;;;;;28.08;41.71;97301.56;5029201;28;1212;-87
2021/07/27 04:34:59;;;;;;;;;;;;;;;28.06;41.88;97295.56;5029193;28;1572;-87
2021/07/27 04:37:24;;;;;;;;;;;;;;;27.99;41.97;97298.94;5047407;28;1593;-87
2021/07/27 04:39:50;;;;;;;;;;;;;;;27.99;41.82;97293.63;5043639;28;1307;-87
2021/07/27 04:42:15;;;;;;;;;;;;;;;28.15;41.38;97293.03;5041960;28;1667;-87
2021/07/27 04:44:40;;;;;;;;;;;;;;;28.16;41.69;97300.00;5038906;28;1643;-87
2021/07/27 04:47:05;;;;;;;;;;;;;;;28.10;41.34;97298.75;5041376;28;1372;-87
2021/07/27 04:49:31;;;;;;;;;;;;;;;27.99;41.97;97294.47;5038081;28;1906;-87
2021/07/27 04:51:59;;;;;;;;;;;;;;;28.01;41.96;97299.63;5033193;28;1307;-87
2021/07/27 04:54:41;;;;;;;;;;;;;;;28.06;41.70;97292.91;5039124;28;1568;-87
2021/07/27 04:57:09;;;;;;;;;;;;;;;27.98;41.90;97300.75;5041015;28;1528;-88
2021/07/27 04:59:34;;;;;;;;;;;;;;;28.02;41.76;97298.63;5025782;28;1295;-88
2021/07/27 05:01:59;;;;;;;;;;;;;;;28.05;41.43;97291.25;5038834;28;1383;-88
2021/07/27 05:04:29;;;;;;;;;;;;;;;28.04;41.66;97289.59;5050672;28;1599;-87
2021/07/27 05:06:55;;;;;;;;;;;;;;;28.06;41.90;97284.13;5039315;28;1369;-87
2021/07/27 05:09:20;;;;;;;;;;;;;;;28.04;41.45;97292.22;5037294;28;1963;-88
2021/07/27 05:11:45;;;;;;;;;;;;;;;28.02;41.94;97288.03;5050652;28;1518;-88
2021/07/27 05:14:10;;;;;;;;;;;;;;;28.07;41.63;97291.09;5034726;28;1296;-88
2021/07/27 05:16:36;;;;;;;;;;;;;;;28.00;41.64;97282.03;5026143;28;1212;-87
2021/07/27 05:19:01;;;;;;;;;;;;;;;28.00;41.67;97280.22;5022228;28;1589;-87
2021/07/27 05:21:26;;;;;;;;;;;;;;;28.09;41.44;97278.53;5048482;28;1284;-87
2021/07/27 05:23:51;;;;;;;;;;;;;;;28.04;41.39;97278.97;5044207;28;1705;-88
2021/07/27 05:26:16;;;;;;;;;;;;;;;28.00;41.69;97285.53;5046581;28;1623;-88
2021/07/27 05:28:42;;;;;;;;;;;;;;;27.95;41.70;97277.16;5039857;28;1906;-87
2021/07/27 05:31:07;;;;;;;;;;;;;;;27.96;42.03;97285.94;5050003;28;1811;-88
2021/07/27 05:33:35;;;;;;;;;;;;;;;28.22;41.11;97284.38;5026616;28;1437;-88
2021/07/27 05:36:01;;;;;;;;;;;;;;;27.90;42.19;97290.03;5033331;28;1394;-88
2021/07/27 05:38:26;;;;;;;;;;;;;;;28.03;41.58;97285.22;5048218;28;1193;-88
2021/07/27 05:40:51;;;;;;;;;;;;;;;28.03;41.60;97285.22;5041846;28;1679;-88
2021/07/27 05:43:17;;;;;;;;;;;;;;;28.17;41.36;97288.41;5031125;28;1303;-88
2021/07/27 05:45:42;;;;;;;;;;;;;;;28.03;41.80;97293.19;5030893;28;1215;-88
2021/07/27 05:48:07;;;;;;;;;;;;;;;27.93;41.84;97287.06;5031623;28;1967;-88
2021/07/27 05:50:32;;;;;;;;;;;;;;;27.93;41.67;97284.44;5035406;28;1291;-88
2021/07/27 05:52:57;;;;;;;;;;;;;;;27.93;41.78;97279.13;5055443;28;1954;-89
2021/07/27 05:55:23;;;;;;;;;;;;;;;28.03;41.70;97279.09;5041913;28;1608;-88
2021/07/27 05:57:48;;;;;;;;;;;;;;;28.02;41.69;97278.25;5050292;28;1504;-88
2021/07/27 06:00:13;;;;;;;;;;;;;;;27.97;41.58;97283.19;5043969;28;1176;-88
2021/07/27 06:02:38;;;;;;;;;;;;;;;27.96;41.66;97292.09;5030717;28;1478;-88
2021/07/27 06:05:04;;;;;;;;;;;;;;;28.00;41.58;97290.00;5042603;28;1311;-88
2021/07/27 06:07:31;;;;;;;;;;;;;;;28.03;41.68;97290.53;5028568;28;1957;-88
2021/07/27 06:09:56;;;;;;;;;;;;;;;28.08;41.35;97296.25;5035018;28;1500;-88
2021/07/27 06:12:21;;;;;;;;;;;;;;;28.20;41.42;97293.41;5033723;28;1218;-88
2021/07/27 06:14:47;;;;;;;;;;;;;;;27.99;41.69;97294.47;5041238;28;1157;-88
2021/07/27 06:17:12;;;;;;;;;;;;;;;28.01;41.81;97291.66;5036849;28;1180;-87
2021/07/27 06:19:37;;;;;;;;;;;;;;;28.08;41.70;97293.59;5025681;28;1537;-88
2021/07/27 06:22:03;;;;;;;;;;;;;;;28.04;41.66;97297.53;5038870;28;1403;-87
2021/07/27 06:24:28;;;;;;;;;;;;;;;27.97;41.75;97300.91;5027910;28;1293;-87
2021/07/27 06:26:53;;;;;;;;;;;;;;;28.01;41.68;97300.44;5047167;28;1652;-88
2021/07/27 06:29:18;;;;;;;;;;;;;;;27.98;41.69;97298.09;5047517;28;1961;-87
2021/07/27 06:31:43;;;;;;;;;;;;;;;27.94;41.84;97302.00;5048417;28;1359;-87
2021/07/27 06:34:09;;;;;;;;;;;;;;;27.95;41.93;97301.00;5026099;28;1507;-88
2021/07/27 06:36:34;;;;;;;;;;;;;;;28.10;41.59;97301.41;5040558;28;1156;-87
2021/07/27 06:38:59;;;;;;;;;;;;;;;27.98;41.85;97295.44;5041322;28;1165;-87
2021/07/27 06:41:25;;;;;;;;;;;;;;;28.07;41.34;97297.25;5040522;28;1619;-87
2021/07/27 06:43:50;;;;;;;;;;;;;;;27.97;41.63;97299.09;5048942;28;1196;-87
2021/07/27 06:46:15;;;;;;;;;;;;;;;27.96;41.69;97289.44;5034537;28;1350;-87
2021/07/27 06:48:43;;;;;;;;;;;;;;;28.08;41.57;97296.25;5038513;28;1906;-87
2021/07/27 06:51:09;;;;;;;;;;;;;;;27.98;41.68;97299.91;5024898;28;1431;-88
2021/07/27 06:53:34;;;;;;;;;;;;;;;28.10;41.24;97296.94;5022533;28;1090;-88
2021/07/27 06:55:59;;;;;;;;;;;;;;;28.02;41.36;97299.47;5025884;28;1589;-87
2021/07/27 06:58:25;;;;;;;;;;;;;;;28.03;41.65;97295.84;5038713;28;1244;-88
2021/07/27 07:00:50;;;;;;;;;;;;;;;27.95;41.52;97297.53;5043589;28;1355;-88
2021/07/27 07:03:15;;;;;;;;;;;;;;;27.98;41.55;97300.75;5040239;28;1216;-88
2021/07/27 07:05:42;;;;;;;;;;;;;;;27.95;41.61;97305.47;5048287;28;1248;-88
2021/07/27 07:08:07;;;;;;;;;;;;;;;27.94;41.65;97317.06;5041778;28;1898;-88
2021/07/27 07:10:32;;;;;;;;;;;;;;;27.88;41.81;97315.81;5042882;28;1611;-88
2021/07/27 07:12:58;;;;;;;;;;;;;;;27.94;41.86;97323.19;5051409;28;839;-88
2021/07/27 07:15:23;;;;;;;;;;;;;;;27.90;42.14;97326.28;5055341;28;1133;-88
2021/07/27 07:17:48;;;;;;;;;;;;;;;27.92;41.94;97324.34;5037051;28;1563;-88
2021/07/27 07:20:15;;;;;;;;;;;;;;;28.01;41.93;97329.63;5043875;28;1215;-88
2021/07/27 07:22:40;;;;;;;;;;;;;;;27.95;41.67;97334.63;5045876;28;1422;-88
2021/07/27 07:25:05;;;;;;;;;;;;;;;27.93;41.73;97342.72;5036028;28;1598;-88
2021/07/27 07:27:31;;;;;;;;;;;;;;;28.02;41.73;97335.75;5044302;28;1164;-88
2021/07/27 07:29:57;;;;;;;;;;;;;;;27.92;41.63;97340.22;5038633;28;1969;-88
2021/07/27 07:32:22;;;;;;;;;;;;;;;27.88;41.93;97344.97;5053751;28;1220;-88
2021/07/27 07:34:47;;;;;;;;;;;;;;;27.99;41.50;97352.78;5044187;28;1589;-88
2021/07/27 07:37:12;;;;;;;;;;;;;;;27.92;41.98;97351.66;5044877;28;1167;-88
2021/07/27 07:39:37;;;;;;;;;;;;;;;28.07;41.59;97349.44;5045106;28;1548;-88
2021/07/27 07:42:03;;;;;;;;;;;;;;;27.84;42.04;97345.41;5035633;28;2052;-88
2021/07/27 07:44:29;;;;;;;;;;;;;;;28.06;41.58;97345.09;5034116;28;1466;-88
2021/07/27 07:46:54;;;;;;;;;;;;;;;28.02;41.64;97356.94;5037796;28;1366;-88
2021/07/27 07:49:19;;;;;;;;;;;;;;;27.96;41.95;97352.22;5049507;28;1956;-88
2021/07/27 07:51:46;;;;;;;;;;;;;;;27.89;41.63;97345.81;5046879;28;1617;-88
2021/07/27 07:54:12;;;;;;;;;;;;;;;27.96;41.86;97349.56;5035334;28;1397;-88
2021/07/27 07:56:37;;;;;;;;;;;;;;;27.84;42.05;97334.81;5041670;28;1698;-88
2021/07/27 07:59:02;;;;;;;;;;;;;;;27.93;41.84;97342.72;5054572;28;1640;-88
2021/07/27 08:01:28;;;;;;;;;;;;;;;28.03;41.48;97338.25;5045882;28;1577;-88
2021/07/27 08:03:53;;;;;;;;;;;;;;;27.99;41.43;97334.22;5041894;28;1592;-88
2021/07/27 08:06:18;;;;;;;;;;;;;;;27.85;41.72;97341.78;5050494;28;1572;-88
2021/07/27 08:08:43;;;;;;;;;;;;;;;28.04;41.62;97333.78;5037856;28;1964;-88
2021/07/27 08:11:11;;;;;;;;;;;;;;;28.02;41.64;97335.75;5048601;28;1687;-88
2021/07/27 08:13:37;;;;;;;;;;;;;;;27.94;41.66;97328.50;5046880;28;1065;-88
2021/07/27 08:16:02;;;;;;;;;;;;;;;27.92;41.88;97322.50;5037013;28;1240;-88
2021/07/27 08:18:27;;;;;;;;;;;;;;;27.84;42.12;97313.59;5044131;28;1356;-88
2021/07/27 08:20:52;;;;;;;;;;;;;;;28.04;41.75;97320.53;5041523;28;1260;-88
2021/07/27 08:23:17;;;;;;;;;;;;;;;27.93;41.77;97320.69;5042578;28;1204;-88
2021/07/27 08:25:43;;;;;;;;;;;;;;;27.91;41.66;97334.09;5039173;28;1660;-88
2021/07/27 08:28:08;;;;;;;;;;;;;;;27.99;41.83;97325.44;5048980;28;1953;-88
2021/07/27 08:30:36;;;;;;;;;;;;;;;28.00;41.37;97327.94;5036908;28;1364;-88
2021/07/27 08:33:02;;;;;;;;;;;;;;;28.03;41.79;97325.00;5049342;28;1207;-88
2021/07/27 08:35:27;;;;;;;;;;;;;;;27.98;41.85;97315.81;5027213;28;1612;-87
2021/07/27 08:37:53;;;;;;;;;;;;;;;28.02;41.48;97327.78;5045943;28;1372;-86
2021/07/27 08:40:18;;;;;;;;;;;;;;;27.85;41.99;97331.16;5040927;28;1552;-87
2021/07/27 08:42:45;;;;;;;;;;;;;;;28.08;41.47;97332.53;5025072;28;1418;-87
2021/07/27 08:45:12;;;;;;;;;;;;;;;27.94;41.58;97327.66;5045688;28;1500;-88
2021/07/27 08:47:39;;;;;;;;;;;;;;;27.85;42.03;97323.22;5022775;28;1891;-87
2021/07/27 08:50:09;;;;;;;;;;;;;;;27.96;41.73;97328.34;5041031;28;1168;-88
2021/07/27 08:52:34;;;;;;;;;;;;;;;27.94;41.73;97323.19;5024748;28;1394;-87
2021/07/27 08:54:59;;;;;;;;;;;;;;;28.00;41.51;97322.63;5039812;28;1538;-88
2021/07/27 08:57:25;;;;;;;;;;;;;;;27.97;41.66;97325.59;5043184;28;1093;-87
2021/07/27 08:59:50;;;;;;;;;;;;;;;28.03;41.68;97337.41;5040285;28;1149;-88
2021/07/27 09:02:24;;;;;;;;;;;;;;;27.86;41.82;97338.97;5039777;28;1382;-87
2021/07/27 09:04:50;;;;;;;;;;;;;;;27.83;41.95;97333.97;5027454;28;1589;-88
2021/07/27 09:07:23;;;;;;;;;;;;;;;27.97;41.66;97340.66;5027268;28;1219;-88
2021/07/27 09:09:48;;;;;;;;;;;;;;;27.78;42.26;97336.19;5041642;28;1902;-88
2021/07/27 09:12:13;;;;;;;;;;;;;;;27.94;41.64;97341.75;5039188;28;1559;-88
2021/07/27 09:14:43;;;;;;;;;;;;;;;27.97;41.72;97328.25;5026985;28;1463;-88
2021/07/27 09:17:08;;;;;;;;;;;;;;;27.90;41.79;97331.59;5031060;28;1336;-88
2021/07/27 09:19:40;;;;;;;;;;;;;;;28.19;41.07;97331.53;5037597;28;1575;-89
2021/07/27 09:22:05;;;;;;;;;;;;;;;28.03;41.48;97327.66;5021366;28;1439;-88
2021/07/27 09:24:30;;;;;;;;;;;;;;;27.88;41.84;97323.75;5046675;28;1242;-89
2021/07/27 09:26:56;;;;;;;;;;;;;;;27.87;41.89;97316.78;5039387;28;1611;-88
2021/07/27 09:29:23;;;;;;;;;;;;;;;27.84;41.97;97327.69;5046393;28;1902;-87
2021/07/27 09:31:51;;;;;;;;;;;;;;;27.81;42.00;97326.16;5049759;28;1292;-89
2021/07/27 09:34:17;;;;;;;;;;;;;;;27.97;41.66;97325.59;5030714;28;1766;-87
2021/07/27 09:36:42;;;;;;;;;;;;;;;27.95;41.89;97326.69;5049252;28;1092;-87
2021/07/27 09:39:07;;;;;;;;;;;;;;;27.97;41.69;97332.72;5029796;28;1263;-87
2021/07/27 09:41:33;;;;;;;;;;;;;;;27.98;41.49;97323.78;5053050;28;1583;-87
2021/07/27 09:43:59;;;;;;;;;;;;;;;27.93;41.96;97323.34;5041404;28;1167;-88
2021/07/27 09:46:27;;;;;;;;;;;;;;;27.99;41.49;97318.31;5031256;28;1227;-87
2021/07/27 09:48:53;;;;;;;;;;;;;;;28.08;41.28;97317.47;5031891;28;1906;-87
2021/07/27 09:51:18;;;;;;;;;;;;;;;28.10;41.05;97312.84;5032083;28;1538;-87
2021/07/27 09:53:44;;;;;;;;;;;;;;;28.06;41.34;97306.19;5050119;28;1227;-87
2021/07/27 09:56:09;;;;;;;;;;;;;;;28.24;41.16;97305.44;5025342;28;1632;-86
2021/07/27 09:58:34;;;;;;;;;;;;;;;28.38;40.72;97307.66;5040103;28;1381;-86
2021/07/27 10:01:00;;;;;;;;;;;;;;;28.73;40.07;97316.72;5044355;28;1296;-85
2021/07/27 10:03:25;;;;;;;;;;;;;;;28.64;40.28;97321.94;5037967;28;1572;-85
2021/07/27 10:05:52;;;;;;;;;;;;;;;28.56;40.65;97319.16;5040102;28;1200;-85
2021/07/27 10:08:25;;;;;;;;;;;;;;;28.40;40.84;97310.16;5027153;28;1910;-85
2021/07/27 10:10:50;;;;;;;;;;;;;;;28.54;40.70;97313.19;5046542;28;1502;-86
2021/07/27 10:13:17;;;;;;;;;;;;;;;28.38;40.99;97317.44;5042589;28;1328;-86
2021/07/27 10:15:43;;;;;;;;;;;;;;;28.57;40.92;97314.69;5039674;28;1319;-87
2021/07/27 10:18:09;;;;;;;;;;;;;;;28.49;40.92;97312.78;5028290;28;1613;-86
2021/07/27 10:20:34;;;;;;;;;;;;;;;28.46;40.97;97314.91;5030834;28;1370;-86
2021/07/27 10:22:59;;;;;;;;;;;;;;;28.29;41.42;97313.81;5030549;28;1219;-86
2021/07/27 10:25:25;;;;;;;;;;;;;;;28.61;40.78;97319.59;5041937;28;1579;-86
2021/07/27 10:27:53;;;;;;;;;;;;;;;28.33;41.15;97313.38;5041434;28;1901;-86
2021/07/27 10:30:31;;;;;;;;;;;;;;;28.31;41.34;97307.41;5041645;28;1146;-86
2021/07/27 10:32:56;;;;;;;;;;;;;;;28.23;41.59;97303.75;5024776;28;1604;-85
2021/07/27 10:35:34;;;;;;;;;;;;;;;28.34;41.14;97309.75;5047117;28;1497;-86
2021/07/27 10:38:15;;;;;;;;;;;;;;;28.43;40.98;97308.03;5029919;28;1594;-86
2021/07/27 10:40:40;;;;;;;;;;;;;;;28.37;41.30;97308.66;5044104;28;1595;-86
2021/07/27 10:43:07;;;;;;;;;;;;;;;28.53;40.95;97308.03;5031991;28;1252;-86
2021/07/27 10:45:32;;;;;;;;;;;;;;;28.50;40.98;97303.81;5027671;28;1236;-86
2021/07/27 10:47:58;;;;;;;;;;;;;;;28.34;41.20;97301.78;5038431;28;1975;-86
2021/07/27 10:50:24;;;;;;;;;;;;;;;28.28;41.54;97293.53;5045066;28;1602;-86
2021/07/27 10:52:49;;;;;;;;;;;;;;;28.29;41.45;97285.50;5041927;28;1285;-86
2021/07/27 10:55:14;;;;;;;;;;;;;;;28.42;41.01;97285.16;5044717;28;1510;-86
2021/07/27 10:57:42;;;;;;;;;;;;;;;28.19;41.60;97284.63;5038657;28;1322;-86
2021/07/27 11:00:08;;;;;;;;;;;;;;;28.21;41.60;97282.69;5047886;28;1688;-86
2021/07/27 11:02:33;;;;;;;;;;;;;;;28.25;41.84;97278.75;5026531;28;1327;-86
2021/07/27 11:04:58;;;;;;;;;;;;;;;28.26;41.52;97280.44;5041035;28;1195;-86
2021/07/27 11:07:25;;;;;;;;;;;;;;;28.23;41.64;97282.56;5051054;28;1294;-86
2021/07/27 11:09:50;;;;;;;;;;;;;;;28.21;41.95;97277.41;5047525;28;1906;-85
2021/07/27 11:12:34;;;;;;;;;;;;;;;28.25;41.72;97269.97;5047265;28;1770;-86
2021/07/27 11:15:18;;;;;;;;;;;;;;;28.20;41.83;97269.56;5048831;28;1078;-86
2021/07/27 11:17:44;;;;;;;;;;;;;;;28.27;41.44;97260.06;5022634;28;1366;-86
2021/07/27 11:20:09;;;;;;;;;;;;;;;28.44;41.07;97261.13;5042408;28;1563;-86
2021/07/27 11:22:34;;;;;;;;;;;;;;;28.39;41.31;97250.16;5040771;28;1559;-86
2021/07/27 11:25:00;;;;;;;;;;;;;;;28.43;41.44;97254.16;5026987;28;1546;-85
2021/07/27 11:27:28;;;;;;;;;;;;;;;28.54;41.10;97248.69;5043042;28;1424;-86
2021/07/27 11:29:54;;;;;;;;;;;;;;;28.38;41.50;97244.00;5024750;28;1969;-86
2021/07/27 11:32:19;;;;;;;;;;;;;;;28.22;41.57;97247.25;5051715;28;1382;-86
2021/07/27 11:34:45;;;;;;;;;;;;;;;28.20;42.05;97233.31;5050276;28;1581;-87
2021/07/27 11:37:10;;;;;;;;;;;;;;;28.37;41.61;97231.72;5040918;28;1351;-86
2021/07/27 11:39:39;;;;;;;;;;;;;;;28.20;41.74;97228.00;5040834;28;1200;-86
2021/07/27 11:42:04;;;;;;;;;;;;;;;28.21;41.98;97231.47;5026093;28;1545;-86
2021/07/27 11:44:29;;;;;;;;;;;;;;;28.32;41.47;97234.81;5040950;28;1537;-86
2021/07/27 11:46:54;;;;;;;;;;;;;;;28.29;41.47;97234.25;5028284;28;1243;-86
2021/07/27 11:49:20;;;;;;;;;;;;;;;28.26;42.02;97231.88;5025585;28;1906;-87
2021/07/27 11:51:45;;;;;;;;;;;;;;;28.34;41.41;97232.00;5047995;28;1383;-86
2021/07/27 11:54:10;;;;;;;;;;;;;;;28.23;41.92;97217.09;5042786;28;1210;-86
2021/07/27 11:56:45;;;;;;;;;;;;;;;28.26;41.87;97218.59;5044993;28;1530;-87
2021/07/27 11:59:10;;;;;;;;;;;;;;;28.23;41.85;97216.25;5040127;28;1278;-86
2021/07/27 12:01:36;;;;;;;;;;;;;;;28.39;41.45;97210.34;5049548;28;1443;-86
2021/07/27 12:04:01;;;;;;;;;;;;;;;28.25;41.76;97208.97;5024217;28;1573;-86
2021/07/27 12:06:27;;;;;;;;;;;;;;;28.21;41.86;97202.31;5044247;28;1232;-86
2021/07/27 12:08:52;;;;;;;;;;;;;;;28.24;41.83;97197.53;5045739;28;1965;-86
2021/07/27 12:11:17;;;;;;;;;;;;;;;28.30;41.56;97191.69;5034620;28;1669;-86
2021/07/27 12:13:42;;;;;;;;;;;;;;;28.23;41.98;97192.41;5046878;28;1377;-86
2021/07/27 12:16:07;;;;;;;;;;;;;;;28.24;41.92;97199.38;5049803;28;1200;-86
2021/07/27 12:18:33;;;;;;;;;;;;;;;28.22;41.77;97190.72;5042534;28;1655;-87
2021/07/27 12:20:58;;;;;;;;;;;;;;;28.43;41.54;97196.63;5026445;28;1602;-87
2021/07/27 12:23:23;;;;;;;;;;;;;;;28.26;42.09;97190.28;5034200;28;1354;-86
2021/07/27 12:25:48;;;;;;;;;;;;;;;28.28;41.81;97182.16;5045379;28;1529;-87
2021/07/27 12:28:14;;;;;;;;;;;;;;;28.28;41.70;97187.47;5030676;28;1907;-86
2021/07/27 12:30:39;;;;;;;;;;;;;;;28.38;41.64;97187.47;5041949;28;1359;-86
2021/07/27 12:33:04;;;;;;;;;;;;;;;28.27;41.95;97178.69;5056778;23;3490;-51
2021/07/27 12:35:29;;;;;;;;;;;;;;;28.27;42.11;97172.53;5028131;28;1580;-52
2021/07/27 12:37:56;;;;;;;;;;;;;;;28.28;41.73;97180.38;5031195;28;1193;-54
2021/07/27 12:40:21;;;;;;;;;;;;;;;28.25;41.88;97172.69;5011093;28;1950;-54
2021/07/27 12:42:46;;;;;;;;;;;;;;;28.23;42.02;97160.56;5030328;28;1208;-52
2021/07/27 12:45:11;;;;;;;;;;;;;;;28.25;42.17;97162.09;5030056;28;1173;-54
2021/07/27 12:47:37;;;;;;;;;;;;;;;28.27;41.88;97154.81;5029594;28;1331;-52
2021/07/27 12:50:05;;;;;;;;;;;;;;;28.23;42.05;97152.63;5029400;28;1919;-53
2021/07/27 12:52:30;;;;;;;;;;;;;;;28.26;42.19;97149.66;5027331;28;1056;-53
2021/07/27 12:54:55;;;;;;;;;;;;;;;28.23;41.85;97150.81;5022064;28;1580;-52
2021/07/27 12:57:21;;;;;;;;;;;;;;;28.31;41.85;97153.59;5025987;28;1253;-51
2021/07/27 12:59:46;;;;;;;;;;;;;;;28.24;42.11;97157.78;5027883;28;1248;-52
2021/07/27 13:02:11;;;;;;;;;;;;;;;28.25;42.32;97156.78;5029113;28;1209;-51
2021/07/27 13:04:37;;;;;;;;;;;;;;;28.32;41.88;97154.41;5028353;28;1550;-52
2021/07/27 13:07:02;;;;;;;;;;;;;;;28.41;41.80;97153.53;5030701;28;1403;-53
2021/07/27 13:09:27;;;;;;;;;;;;;;;28.31;41.94;97156.22;5029895;28;1902;-53
2021/07/27 13:11:52;;;;;;;;;;;;;;;28.28;41.92;97155.66;5011846;28;1591;-52